Time;durP1;ratioP1;P1;durP2;ratioP2;P2;SDS_P1;SDS_P2;PMS_P1;PMS_P2;Temp;Humidity;BMP_temperature;BMP_pressure;BME280_temperature;BME280_humidity;BME280_pressure;Samples;Min_cycle;Max_cycle;Signal;HPM_P1;HPM_P2
2022/11/23 01:24:27;;;;;;;51.67;28.63;;;;;;;1.77;98.17;99624.47;5028446;28;20051;-61
2022/11/23 01:40:39;;;;;;;50.60;27.42;;;;;;;1.78;97.84;99627.91;5029686;28;20056;-62
2022/11/23 01:43:15;;;;;;;50.95;27.85;;;;;;;1.80;98.14;99633.03;5029095;28;20096;-62
2022/11/23 01:45:44;;;;;;;;;;;;;;;1.81;98.15;99626.94;5028179;28;20171;-62
2022/11/23 03:14:21;;;;;;;49.60;27.95;;;;;;;1.98;99.33;99643.56;5023190;28;20056;-61
2022/11/23 03:25:37;;;;;;;45.70;27.00;;;;;;;1.96;98.88;99644.50;5030130;28;20540;-62
2022/11/23 03:40:55;;;;;;;50.67;27.85;;;;;;;1.92;98.63;99638.59;5024592;28;20232;-60
2022/11/23 03:47:47;;;;;;;50.92;27.98;;;;;;;1.87;98.95;99642.28;5028026;28;20052;-59
2022/11/23 04:03:09;;;;;;;48.65;26.77;;;;;;;1.79;99.17;99642.56;4967029;28;20733;-61
2022/11/23 06:27:25;;;;;;;43.83;23.67;;;;;;;1.67;99.82;99659.47;5020787;28;20046;-61
2022/11/23 06:29:53;;;;;;;41.85;24.40;;;;;;;1.69;99.81;99661.97;5024563;28;20045;-63
2022/11/23 07:31:59;;;;;;;38.97;22.58;;;;;;;1.58;98.50;99703.91;5030046;28;20510;-63
2022/11/23 07:47:12;;;;;;;39.95;21.33;;;;;;;1.64;98.48;99710.59;5029651;28;20178;-62
2022/11/23 07:49:39;;;;;;;42.50;23.83;;;;;;;1.64;98.55;99715.81;5032431;28;20076;-61
2022/11/23 07:52:06;;;;;;;42.10;24.10;;;;;;;1.66;98.50;99719.16;5031413;28;20145;-62
2022/11/23 07:54:33;;;;;;;42.22;23.50;;;;;;;1.70;98.62;99715.56;5028671;28;20058;-61
2022/11/23 07:57:00;;;;;;;42.92;24.90;;;;;;;1.71;98.74;99723.31;5027448;28;20105;-62
2022/11/23 07:59:28;;;;;;;41.22;22.67;;;;;;;1.73;98.68;99725.84;5032192;28;20462;-62
2022/11/23 08:01:55;;;;;;;41.22;23.95;;;;;;;1.74;98.05;99728.34;5026463;28;20056;-64
2022/11/23 08:04:26;;;;;;;39.90;23.45;;;;;;;1.76;98.15;99728.31;5029032;28;20425;-63
2022/11/23 08:06:54;;;;;;;37.92;23.38;;;;;;;1.81;98.40;99730.75;5032807;28;20094;-62
2022/11/23 08:09:22;;;;;;;43.33;25.23;;;;;;;1.83;97.70;99728.94;5031683;28;20509;-61
2022/11/23 08:11:49;;;;;;;40.65;22.98;;;;;;;1.81;97.47;99736.78;5027583;28;20097;-62
2022/11/23 08:14:16;;;;;;;39.22;22.40;;;;;;;1.84;97.60;99734.06;5028983;28;20140;-62
2022/11/23 08:16:48;;;;;;;36.15;22.90;;;;;;;1.86;97.46;99742.66;5030403;28;20109;-62
2022/11/23 08:19:16;;;;;;;40.45;23.77;;;;;;;1.88;97.54;99742.56;5022608;28;20053;-62
2022/11/23 08:21:44;;;;;;;43.00;23.67;;;;;;;1.89;97.32;99732.16;5024636;28;20132;-62
2022/11/23 08:24:11;;;;;;;42.30;22.95;;;;;;;1.92;97.38;99741.56;5048839;28;20153;-62
2022/11/23 08:26:38;;;;;;;49.47;27.83;;;;;;;1.93;97.43;99743.25;5028712;28;20529;-62
2022/11/23 08:29:06;;;;;;;40.90;22.88;;;;;;;1.94;97.28;99738.00;5033755;28;20080;-63
2022/11/23 08:31:33;;;;;;;35.92;22.25;;;;;;;1.98;97.24;99738.72;5034962;28;20472;-66
2022/11/23 08:34:00;;;;;;;41.15;23.73;;;;;;;2.02;97.44;99737.69;5033080;28;20468;-63
2022/11/23 08:36:29;;;;;;;41.15;23.65;;;;;;;2.05;97.52;99737.59;5035812;28;20085;-64
2022/11/23 08:38:56;;;;;;;39.50;22.80;;;;;;;2.09;97.67;99735.72;5035751;28;20054;-63
2022/11/23 08:41:24;;;;;;;42.00;23.15;;;;;;;2.13;97.92;99740.75;5031981;28;20132;-63
2022/11/23 08:43:51;;;;;;;36.55;21.85;;;;;;;2.18;98.09;99744.00;5036523;28;20067;-63
2022/11/23 08:46:18;;;;;;;40.92;23.10;;;;;;;2.23;98.13;99746.44;5035210;28;20050;-62
2022/11/23 08:48:45;;;;;;;39.90;23.85;;;;;;;2.25;97.63;99749.81;5036238;28;20056;-61
2022/11/23 08:51:13;;;;;;;35.92;21.70;;;;;;;2.29;97.88;99744.44;5035905;28;20071;-61
2022/11/23 08:53:40;;;;;;;39.13;22.40;;;;;;;2.34;97.32;99741.66;5034125;28;20502;-62
2022/11/23 08:56:07;;;;;;;38.95;22.63;;;;;;;2.36;97.42;99744.22;5032069;28;20061;-61
2022/11/23 08:58:35;;;;;;;34.35;22.80;;;;;;;2.39;97.77;99747.53;5035229;28;20060;-61
2022/11/23 09:01:07;;;;;;;36.85;22.23;;;;;;;2.46;98.00;99755.91;5033720;28;20053;-62
2022/11/23 09:03:34;;;;;;;40.50;22.30;;;;;;;2.50;97.43;99747.09;5034896;28;20045;-61
2022/11/23 09:06:01;;;;;;;37.47;21.50;;;;;;;2.54;97.35;99749.50;5035777;28;20136;-61
2022/11/23 09:08:28;;;;;;;41.65;23.02;;;;;;;2.60;97.31;99751.00;5034025;28;20405;-62
2022/11/23 09:11:03;;;;;;;40.30;21.95;;;;;;;2.66;97.54;99760.34;5034775;28;20506;-62
2022/11/23 09:13:31;;;;;;;36.45;22.15;;;;;;;2.68;97.26;99754.16;5033396;28;20053;-62
2022/11/23 09:15:59;;;;;;;37.88;22.17;;;;;;;2.74;96.51;99759.09;5033933;28;20049;-62
2022/11/23 09:18:29;;;;;;;35.92;22.88;;;;;;;2.79;96.63;99757.19;5035448;28;20092;-63
2022/11/23 09:20:56;;;;;;;39.72;22.52;;;;;;;2.85;96.45;99755.22;5033488;28;20049;-62
2022/11/23 09:23:25;;;;;;;34.80;21.75;;;;;;;2.88;97.11;99750.75;5034834;28;20132;-61
2022/11/23 09:25:53;;;;;;;35.13;20.73;;;;;;;2.91;96.34;99748.00;5034860;28;20056;-63
2022/11/23 09:28:21;;;;;;;35.13;19.83;;;;;;;2.95;97.18;99746.97;5033662;28;20132;-61
2022/11/23 09:30:48;;;;;;;35.28;20.27;;;;;;;3.00;96.55;99744.19;5038806;28;20063;-61
2022/11/23 09:33:16;;;;;;;32.85;20.25;;;;;;;3.05;96.75;99740.47;5038906;28;20053;-61
2022/11/23 09:35:43;;;;;;;35.45;20.60;;;;;;;3.14;96.27;99734.03;5033630;28;20136;-60
2022/11/23 09:38:10;;;;;;;34.63;21.15;;;;;;;3.27;96.20;99734.38;5031966;28;20054;-62
2022/11/23 09:40:39;;;;;;;38.88;22.40;;;;;;;3.36;95.66;99735.72;5035169;28;20033;-61
2022/11/23 09:43:40;;;;;;;45.28;25.10;;;;;;;3.43;95.18;99732.78;5034058;28;20076;-61
2022/11/23 09:46:15;;;;;;;38.35;23.75;;;;;;;3.50;95.99;99738.56;5020696;28;20053;-62
2022/11/23 09:48:54;;;;;;;38.80;25.45;;;;;;;3.55;95.41;99727.03;5034150;28;20128;-64
2022/11/23 09:51:22;;;;;;;39.22;23.50;;;;;;;3.63;95.49;99739.72;5033888;28;20065;-61
2022/11/23 09:53:58;;;;;;;34.38;20.92;;;;;;;3.68;95.57;99731.69;5036623;28;20124;-61
2022/11/23 09:56:34;;;;;;;35.08;21.30;;;;;;;3.70;95.14;99735.94;5032798;28;20140;-63
2022/11/23 09:59:09;;;;;;;36.58;22.83;;;;;;;3.75;94.98;99731.34;5031481;28;20124;-62
2022/11/23 10:01:36;;;;;;;37.95;23.13;;;;;;;3.81;95.07;99732.84;5051177;28;20358;-63
2022/11/23 10:04:04;;;;;;;35.67;21.05;;;;;;;3.84;95.34;99732.72;5034090;28;20112;-63
2022/11/23 10:06:36;;;;;;;32.08;19.27;;;;;;;3.89;95.14;99732.50;5032768;28;20053;-62
2022/11/23 10:09:19;;;;;;;34.17;20.73;;;;;;;3.93;95.02;99732.28;5033498;28;20153;-62
2022/11/23 10:12:24;;;;;;;33.33;19.92;;;;;;;3.98;94.55;99717.28;5032750;28;20064;-62
2022/11/23 10:15:33;;;;;;;32.65;20.30;;;;;;;4.06;95.02;99733.41;5032976;28;20042;-62
2022/11/23 10:18:15;;;;;;;32.35;19.55;;;;;;;4.18;93.85;99736.34;5029686;28;20076;-63
2022/11/23 10:21:29;;;;;;;30.73;18.55;;;;;;;4.20;94.23;99730.16;5033494;28;20079;-66
2022/11/23 10:24:12;;;;;;;31.38;18.58;;;;;;;4.27;94.26;99730.69;5010673;28;20045;-64
2022/11/23 10:26:41;;;;;;;32.53;19.98;;;;;;;4.35;94.23;99728.56;5029816;28;20076;-63
2022/11/23 10:29:13;;;;;;;29.08;20.08;;;;;;;4.44;93.80;99725.53;5034225;28;20072;-63
2022/11/23 10:31:44;;;;;;;32.10;19.35;;;;;;;4.51;93.44;99723.50;5035783;28;20069;-63
2022/11/23 10:34:13;;;;;;;36.00;19.90;;;;;;;4.57;93.26;99729.22;5028621;28;20434;-63
2022/11/23 10:36:40;;;;;;;27.08;17.40;;;;;;;4.61;93.20;99729.09;5032950;28;20117;-63
2022/11/23 10:39:25;;;;;;;31.77;17.58;;;;;;;4.66;92.74;99722.72;5034184;28;20049;-62
2022/11/23 10:41:52;;;;;;;29.35;18.60;;;;;;;4.77;92.41;99733.50;5015132;28;20478;-64
2022/11/23 10:44:31;;;;;;;27.45;18.00;;;;;;;4.87;92.16;99731.28;5034002;28;20105;-64
2022/11/23 10:46:59;;;;;;;32.90;20.17;;;;;;;4.96;91.86;99716.94;5033376;28;20099;-63
2022/11/23 10:49:34;;;;;;;32.38;18.30;;;;;;;5.05;91.56;99724.28;5035986;28;20132;-64
2022/11/23 10:52:04;;;;;;;29.40;19.00;;;;;;;5.18;91.61;99719.25;5034011;28;20084;-63
2022/11/23 10:54:38;;;;;;;28.77;17.63;;;;;;;5.31;91.59;99715.09;5028907;28;20132;-62
2022/11/23 10:57:24;;;;;;;31.15;18.85;;;;;;;5.49;91.05;99706.34;5032716;28;20525;-62
2022/11/23 11:00:09;;;;;;;27.48;16.65;;;;;;;5.75;90.67;99711.94;5027702;28;20083;-60
2022/11/23 11:02:46;;;;;;;29.38;17.23;;;;;;;6.03;88.70;99713.91;5032023;28;20049;-62
2022/11/23 11:05:23;;;;;;;30.00;18.65;;;;;;;6.24;87.69;99712.75;5028415;28;20049;-62
2022/11/23 11:08:16;;;;;;;29.60;18.73;;;;;;;6.50;87.38;99710.44;5029050;28;20065;-62
2022/11/23 11:10:48;;;;;;;34.08;20.30;;;;;;;6.73;85.75;99709.97;5032859;28;20132;-62
2022/11/23 11:13:39;;;;;;;29.77;19.20;;;;;;;7.02;84.97;99708.25;5031894;28;20136;-61
2022/11/23 11:16:26;;;;;;;25.27;17.70;;;;;;;7.36;83.05;99703.66;5041421;28;20157;-62
2022/11/23 11:18:55;;;;;;;28.55;17.30;;;;;;;7.68;81.51;99706.09;5045335;28;20049;-61
2022/11/23 11:21:22;;;;;;;30.63;19.13;;;;;;;7.90;80.56;99709.06;5028609;28;20053;-63
2022/11/23 11:23:53;;;;;;;27.17;17.25;;;;;;;8.10;78.73;99705.16;5034124;28;20049;-62
2022/11/23 11:26:25;;;;;;;27.90;16.67;;;;;;;8.29;77.28;99699.63;5030423;28;20561;-62
2022/11/23 11:28:54;;;;;;;25.45;17.13;;;;;;;8.39;77.12;99695.50;5014233;28;20120;-62
2022/11/23 11:31:56;;;;;;;27.80;16.88;;;;;;;8.50;75.63;99692.16;5032355;28;20132;-62
2022/11/23 11:34:28;;;;;;;24.08;16.27;;;;;;;8.64;75.36;99697.34;5030382;28;20732;-61
2022/11/23 11:37:15;;;;;;;25.80;16.55;;;;;;;8.84;74.35;99696.88;5030841;28;20113;-62
2022/11/23 11:39:50;;;;;;;23.70;15.73;;;;;;;9.06;74.11;99693.66;5030014;28;20148;-63
2022/11/23 11:42:20;;;;;;;24.67;16.50;;;;;;;9.31;73.36;99694.59;5030484;28;20113;-62
2022/11/23 11:44:50;;;;;;;28.77;16.40;;;;;;;9.50;72.36;99689.78;5031625;28;20140;-62
2022/11/23 11:47:39;;;;;;;22.58;15.10;;;;;;;9.60;72.11;99695.22;5032900;28;20148;-61
2022/11/23 11:50:28;;;;;;;26.58;16.42;;;;;;;9.89;71.38;99693.16;5031225;28;20073;-63
2022/11/23 11:53:02;;;;;;;26.10;16.58;;;;;;;10.19;70.90;99695.41;4987227;28;20111;-61
2022/11/23 11:55:40;;;;;;;22.83;14.35;;;;;;;10.22;69.44;99702.22;5024816;28;20566;-60
2022/11/23 11:58:10;;;;;;;23.58;15.43;;;;;;;10.52;68.77;99693.94;5026216;28;20079;-61
2022/11/23 12:00:38;;;;;;;27.13;14.38;;;;;;;10.83;67.86;99697.75;5031037;28;20037;-61
2022/11/23 12:03:33;;;;;;;24.48;14.77;;;;;;;10.85;66.58;99691.44;5028967;28;20053;-61
2022/11/23 12:06:06;;;;;;;27.45;15.95;;;;;;;10.68;67.71;99701.56;5025978;28;20068;-62
2022/11/23 12:09:02;;;;;;;23.70;15.10;;;;;;;10.57;67.54;99702.31;5032784;28;20113;-63
2022/11/23 12:11:29;;;;;;;;;;;;;;;10.53;67.22;99706.97;5027707;28;20057;-62
2022/11/23 12:14:01;;;;;;;22.70;13.63;;;;;;;10.65;67.98;99700.81;5036250;28;20008;-62
2022/11/23 12:16:50;;;;;;;24.52;15.73;;;;;;;10.64;68.09;99701.75;5029123;28;20054;-64
2022/11/23 12:19:51;;;;;;;25.42;15.60;;;;;;;10.61;67.45;99699.34;5030179;28;20109;-62
2022/11/23 12:22:40;;;;;;;22.52;15.27;;;;;;;10.63;67.15;99697.47;5023852;28;20501;-61
2022/11/23 12:25:27;;;;;;;21.98;14.57;;;;;;;10.71;67.57;99702.13;5026144;28;20252;-64
2022/11/23 12:28:15;;;;;;;21.80;13.98;;;;;;;10.98;67.35;99691.34;5017687;28;20048;-63
2022/11/23 12:31:13;;;;;;;25.02;14.75;;;;;;;11.16;66.58;99691.75;5027751;28;20073;-61
2022/11/23 12:34:14;;;;;;;22.05;14.68;;;;;;;11.09;66.37;99701.06;5026864;28;20447;-63
2022/11/23 12:36:54;;;;;;;23.13;14.23;;;;;;;11.08;65.81;99700.25;5023868;28;20059;-63
2022/11/23 12:39:46;;;;;;;22.55;15.25;;;;;;;11.19;66.82;99698.59;5029099;28;20064;-62
2022/11/23 12:42:22;;;;;;;24.27;15.00;;;;;;;11.33;67.20;99701.81;5028934;28;20573;-62
2022/11/23 12:45:01;;;;;;;21.60;14.57;;;;;;;11.30;66.63;99707.34;5027953;28;20061;-63
2022/11/23 12:47:51;;;;;;;25.23;15.82;;;;;;;11.15;65.75;99701.44;5031616;28;20132;-63
2022/11/23 12:50:51;;;;;;;24.27;14.55;;;;;;;10.91;66.66;99700.66;5027884;28;20060;-63
2022/11/23 12:53:30;;;;;;;21.17;13.73;;;;;;;10.78;67.29;99707.81;5016717;28;20045;-63
2022/11/23 12:56:16;;;;;;;18.23;13.05;;;;;;;10.86;67.93;99705.44;5030907;28;20077;-62
2022/11/23 12:58:43;;;;;;;19.27;13.98;;;;;;;10.93;67.25;99698.75;5024763;28;20053;-63
2022/11/23 13:01:15;;;;;;;21.92;13.25;;;;;;;10.93;66.82;99700.53;5020819;28;20070;-63
2022/11/23 13:04:07;;;;;;;22.38;14.02;;;;;;;11.01;68.52;99701.66;5017164;28;20045;-63
2022/11/23 13:07:08;;;;;;;20.27;13.55;;;;;;;11.24;67.84;99702.53;5024905;28;20122;-63
2022/11/23 13:09:55;;;;;;;19.55;12.15;;;;;;;11.36;67.79;99698.97;5023730;28;20065;-62
2022/11/23 13:12:35;;;;;;;18.48;12.85;;;;;;;11.43;67.38;99701.13;5028655;28;20059;-62
2022/11/23 13:15:40;;;;;;;23.17;13.85;;;;;;;11.38;66.65;99694.41;5027267;28;20053;-64
2022/11/23 13:18:26;;;;;;;20.33;13.98;;;;;;;11.38;65.84;99699.69;4992008;28;20049;-63
2022/11/23 13:21:17;;;;;;;19.92;12.98;;;;;;;11.35;65.82;99705.19;5028394;28;20164;-62
2022/11/23 13:23:45;;;;;;;23.13;13.95;;;;;;;11.28;65.99;99706.63;5033576;28;20057;-62
2022/11/23 13:26:17;;;;;;;18.13;12.88;;;;;;;11.08;67.50;99696.78;5033003;28;20943;-62
2022/11/23 13:28:49;;;;;;;21.67;15.02;;;;;;;10.96;67.33;99702.97;5024897;28;20136;-62
2022/11/23 13:31:29;;;;;;;18.02;12.25;;;;;;;10.98;67.10;99693.97;5030282;28;20113;-63
2022/11/23 13:34:01;;;;;;;20.40;13.73;;;;;;;11.04;66.10;99696.16;5029969;28;20049;-62
2022/11/23 13:36:29;;;;;;;22.63;13.07;;;;;;;11.00;66.48;99685.97;5051808;28;20139;-61
2022/11/23 13:39:50;;;;;;;18.08;12.90;;;;;;;10.87;68.62;99686.06;5033128;28;20072;-62
2022/11/23 13:42:21;;;;;;;21.67;13.57;;;;;;;10.80;67.34;99693.56;5029895;28;20045;-61
2022/11/23 13:45:19;;;;;;;21.65;12.15;;;;;;;10.65;68.55;99692.06;5020263;28;20070;-61
2022/11/23 13:48:08;;;;;;;24.13;13.23;;;;;;;10.54;67.88;99700.78;5022704;28;20050;-63
2022/11/23 13:50:58;;;;;;;17.60;12.25;;;;;;;10.42;68.27;99699.03;5028919;28;20503;-64
2022/11/23 13:53:36;;;;;;;20.20;12.75;;;;;;;10.17;68.61;99694.66;5022211;28;20083;-62
2022/11/23 13:56:35;;;;;;;24.00;12.05;;;;;;;9.96;68.46;99699.69;5022694;28;20046;-62
2022/11/23 13:59:24;;;;;;;22.10;12.43;;;;;;;9.84;69.10;99703.19;5031760;28;20133;-60
2022/11/23 14:02:06;;;;;;;17.15;12.30;;;;;;;9.68;71.17;99698.16;5019161;28;20562;-63
2022/11/23 14:04:38;;;;;;;22.20;13.70;;;;;;;9.56;70.31;99701.66;5032327;28;20034;-63
2022/11/23 14:07:41;;;;;;;23.95;12.65;;;;;;;9.45;72.23;99701.53;5020561;28;20064;-63
2022/11/23 14:10:22;;;;;;;18.48;12.20;;;;;;;9.35;71.56;99703.94;5028558;28;20051;-62
2022/11/23 14:12:55;;;;;;;18.83;12.45;;;;;;;9.39;71.60;99702.81;5040896;28;20080;-63
2022/11/23 14:15:40;;;;;;;21.02;12.75;;;;;;;9.44;71.00;99705.94;5032109;28;20073;-61
2022/11/23 14:18:36;;;;;;;17.85;12.10;;;;;;;9.49;71.71;99698.59;5029235;28;20080;-62
2022/11/23 14:21:12;;;;;;;20.88;12.68;;;;;;;9.50;70.93;99702.91;5013261;28;20164;-62
2022/11/23 14:24:16;;;;;;;21.13;13.23;;;;;;;9.43;70.50;99713.94;5031499;28;20045;-62
2022/11/23 14:27:18;;;;;;;18.63;12.88;;;;;;;9.34;71.12;99712.78;5031831;28;20565;-62
2022/11/23 14:30:20;;;;;;;23.60;11.93;;;;;;;9.21;71.43;99707.53;5012461;28;20057;-63
2022/11/23 14:32:52;;;;;;;17.60;12.38;;;;;;;9.12;73.98;99716.03;5025572;28;20577;-62
2022/11/23 14:36:03;;;;;;;20.13;13.20;;;;;;;8.97;74.12;99717.06;5031932;28;20051;-63
2022/11/23 14:39:02;;;;;;;22.92;14.40;;;;;;;8.78;74.39;99714.78;5020840;28;20133;-63
2022/11/23 14:45:48;;;;;;;21.55;14.15;;;;;;;8.42;75.75;99725.91;5037930;28;20040;-63
2022/11/23 14:48:30;;;;;;;22.55;15.10;;;;;;;8.37;75.91;99723.56;5027087;28;20121;-63
2022/11/23 14:51:04;;;;;;;21.80;14.40;;;;;;;8.34;77.94;99721.13;5032959;28;20536;-63
2022/11/23 15:37:16;;;;;;;25.75;16.33;;;;;;;6.87;82.36;99748.41;5028190;28;20052;-63
2022/11/23 15:39:43;;;;;;;23.35;16.77;;;;;;;6.87;82.44;99752.81;5027157;28;20045;-62
2022/11/23 15:42:35;;;;;;;25.05;16.00;;;;;;;6.87;83.14;99752.81;5020929;28;20057;-64
2022/11/23 15:45:44;;;;;;;28.60;15.93;;;;;;;6.78;82.60;99754.16;5036309;28;20059;-62
2022/11/23 15:48:30;;;;;;;23.05;13.93;;;;;;;6.79;82.67;99755.84;5018538;28;20476;-62
2022/11/23 15:51:00;;;;;;;24.02;15.35;;;;;;;6.74;81.38;99753.50;5026668;28;20136;-61
2022/11/23 15:53:32;;;;;;;22.75;14.50;;;;;;;6.72;81.99;99757.16;5029179;28;20117;-62
2022/11/23 15:56:02;;;;;;;25.67;15.20;;;;;;;6.71;81.58;99765.91;5025367;28;20547;-62
2022/11/23 15:58:30;;;;;;;22.13;14.48;;;;;;;6.65;81.45;99766.25;5025947;28;20077;-62
2022/11/23 19:20:54;;;;;;;46.45;28.65;;;;;;;3.96;90.52;99833.72;5027752;28;20138;-64
